This is the latest recevied weather packets stored in our database for station/object OK2CME-6. If no packets are shown the sender has not sent any weather packets the latest 10 day(s).
| Time | Temp. | Humidity | Pressure | Rain* | Wind** | Luminosity | Snow |
|---|---|---|---|---|---|---|---|
| 1778206548 | 9.44° C | 90% | 1018.8 hPa | 0 mm | - | 0 W/m² | - |
| 1778205348 | 10° C | 88% | 1018.7 hPa | 0 mm | - | 0 W/m² | - |
| 1778204148 | 10.56° C | 85% | 1018.9 hPa | 0 mm | - | 0 W/m² | - |
| 1778202948 | 10.56° C | 83% | 1018.9 hPa | 0 mm | - | 0 W/m² | - |
| 1778201748 | 10.56° C | 82% | 1018.9 hPa | 0 mm | - | 0 W/m² | - |
| 1778200548 | 11.11° C | 82% | 1018.6 hPa | 0 mm | - | 0 W/m² | - |
| 1778199348 | 11.11° C | 81% | 1018.7 hPa | 0 mm | - | 0 W/m² | - |
| 1778198148 | 11.11° C | 80% | 1018.7 hPa | 0 mm | - | 0 W/m² | - |
| 1778196948 | 11.11° C | 79% | 1018.6 hPa | 0 mm | - | 0 W/m² | - |
| 1778195748 | 11.11° C | 78% | 1018.8 hPa | 0 mm | - | 0 W/m² | - |
| 1778194548 | 11.11° C | 78% | 1018.9 hPa | 0 mm | - | 0 W/m² | - |
| 1778193348 | 11.11° C | 78% | 1018.7 hPa | 0 mm | - | 0 W/m² | - |
| 1778192149 | 11.11° C | 78% | 1018.9 hPa | 0 mm | - | 0 W/m² | - |
| 1778190948 | 11.67° C | 78% | 1018.6 hPa | 0 mm | - | 0 W/m² | - |
| 1778178085 | 15° C | 64% | 1016.6 hPa | 0 mm | - | 5 W/m² | - |
| 1778176885 | 16.11° C | 56% | 1016.7 hPa | 0 mm | - | 12 W/m² | - |
| 1778175685 | 16.11° C | 54% | 1016.1 hPa | 0 mm | - | 26 W/m² | - |
| 1778174485 | 16.67° C | 56% | 1016 hPa | 0 mm | - | 51 W/m² | - |
| 1778173285 | 16.67° C | 55% | 1016 hPa | 0 mm | - | 65 W/m² | - |
| 1778172085 | 16.67° C | 55% | 1015.9 hPa | 0 mm | - | 89 W/m² | - |
| 1778127291 | 10° C | 92% | 1013.2 hPa | 0 mm | - | 8 W/m² | - |
| 1778098803 | 16.67° C | 67% | 1009.9 hPa | 0 mm | - | 0 W/m² | - |
| 1778097603 | 16.67° C | 65% | 1010 hPa | 0 mm | - | 0 W/m² | - |
| 1778096403 | 17.22° C | 64% | 1009.9 hPa | 0 mm | - | 0 W/m² | - |
| 1778095203 | 17.22° C | 62% | 1010 hPa | 0 mm | - | 0 W/m² | - |
* Rain latest hour (hover to see other rain measurements)
** Current wind speed in m/s (hover to see current wind gust speed)